createdAt,value
2022-11-29T00:01:01.638Z,7.18
2022-11-29T00:03:29.133Z,7.16
2022-11-29T00:05:56.014Z,7.15
2022-11-29T00:08:24.055Z,7.11
2022-11-29T00:10:50.867Z,7.10
2022-11-29T00:13:17.874Z,7.13
2022-11-29T00:15:44.483Z,7.12
2022-11-29T00:18:11.017Z,7.14
2022-11-29T00:20:39.116Z,7.13
2022-11-29T00:23:05.788Z,7.12
2022-11-29T00:25:32.353Z,7.11
2022-11-29T00:27:58.889Z,7.10
2022-11-29T00:30:25.700Z,7.06
2022-11-29T00:32:52.282Z,7.06
2022-11-29T00:35:18.884Z,7.04
2022-11-29T00:37:45.448Z,7.01
2022-11-29T00:40:12.364Z,7.00
2022-11-29T00:42:39.039Z,6.98
2022-11-29T00:45:06.006Z,6.98
2022-11-29T00:47:32.605Z,6.98
2022-11-29T00:49:59.144Z,6.99
2022-11-29T00:52:25.694Z,6.97
2022-11-29T00:54:52.242Z,6.92
2022-11-29T00:57:18.805Z,6.93
2022-11-29T00:59:45.374Z,6.90
2022-11-29T01:02:12.001Z,6.87
2022-11-29T01:04:38.598Z,6.87
2022-11-29T01:07:05.178Z,6.88
2022-11-29T01:09:31.779Z,6.89
2022-11-29T01:11:58.332Z,6.87
2022-11-29T01:14:24.897Z,6.85
2022-11-29T01:16:51.518Z,6.79
2022-11-29T01:19:18.146Z,6.77
2022-11-29T01:21:44.695Z,6.73
2022-11-29T01:24:11.309Z,6.69
2022-11-29T01:26:38.154Z,6.66
2022-11-29T01:29:04.730Z,6.65
2022-11-29T01:31:36.014Z,6.63
2022-11-29T01:34:04.594Z,6.62
2022-11-29T01:36:31.477Z,6.62
2022-11-29T01:39:03.646Z,6.63
2022-11-29T01:41:32.822Z,6.63
2022-11-29T01:44:07.109Z,6.65
2022-11-29T01:46:37.417Z,6.65
2022-11-29T01:49:08.347Z,6.57
2022-11-29T01:51:37.630Z,6.64
2022-11-29T01:54:05.334Z,6.64
2022-11-29T01:56:34.194Z,6.62
2022-11-29T01:59:07.939Z,6.62
2022-11-29T02:01:36.735Z,6.62
2022-11-29T02:04:05.411Z,6.61
2022-11-29T02:06:32.157Z,6.59
2022-11-29T02:08:58.749Z,6.58
2022-11-29T02:30:35.941Z,6.52
2022-11-29T02:41:58.283Z,6.64
2022-11-29T02:47:22.466Z,6.59
2022-11-29T02:50:19.245Z,6.58
2022-11-29T02:56:02.422Z,6.53
2022-11-29T02:58:38.305Z,6.51
2022-11-29T03:03:53.298Z,6.89
2022-11-29T03:09:12.030Z,6.58
2022-11-29T03:14:31.078Z,6.54
2022-11-29T03:17:25.345Z,6.50
2022-11-29T03:25:33.040Z,6.46
2022-11-29T03:28:06.438Z,6.43
2022-11-29T03:30:36.821Z,6.43
2022-11-29T03:33:09.766Z,6.31
2022-11-29T03:36:02.037Z,6.34
2022-11-29T03:38:47.477Z,6.37
2022-11-29T03:41:40.344Z,6.34
2022-11-29T03:44:28.167Z,6.35
2022-11-29T03:47:03.469Z,6.38
2022-11-29T03:49:39.149Z,6.36
2022-11-29T03:52:35.644Z,6.32
2022-11-29T03:57:55.801Z,6.31
2022-11-29T04:00:22.634Z,6.24
2022-11-29T04:06:14.992Z,6.27
2022-11-29T04:23:20.819Z,6.40
2022-11-29T04:29:03.972Z,6.34
2022-11-29T04:32:10.370Z,6.32
2022-11-29T04:35:10.606Z,6.32
2022-11-29T04:49:07.450Z,6.42
2022-11-29T04:54:37.699Z,6.36
2022-11-29T04:57:25.522Z,6.34
2022-11-29T05:00:06.167Z,6.37
2022-11-29T05:11:14.604Z,6.54
2022-11-29T05:22:44.455Z,6.41
2022-11-29T05:25:41.413Z,6.38
2022-11-29T05:33:42.694Z,6.36
2022-11-29T05:39:21.490Z,6.30
2022-11-29T05:44:51.077Z,6.34
2022-11-29T05:47:31.066Z,6.31
2022-11-29T05:50:22.894Z,6.28
2022-11-29T05:53:15.066Z,6.27
2022-11-29T05:58:49.493Z,6.63
2022-11-29T06:01:24.380Z,6.46
2022-11-29T06:04:15.193Z,6.38
2022-11-29T06:06:55.322Z,6.38
2022-11-29T06:12:19.543Z,6.39
2022-11-29T06:29:01.705Z,6.43
2022-11-29T06:31:34.333Z,6.40
2022-11-29T06:37:04.790Z,6.35
2022-11-29T06:39:31.629Z,6.34
2022-11-29T06:41:58.175Z,6.33
2022-11-29T06:44:25.020Z,6.33
2022-11-29T06:47:13.647Z,6.27
2022-11-29T06:50:13.449Z,6.24
2022-11-29T07:06:36.446Z,6.23
2022-11-29T07:09:16.489Z,6.22
2022-11-29T07:11:43.458Z,6.25
2022-11-29T07:14:10.901Z,6.25
2022-11-29T07:16:54.464Z,6.25
2022-11-29T07:25:02.119Z,6.23
2022-11-29T07:35:45.620Z,6.20
2022-11-29T07:38:51.939Z,6.16
2022-11-29T07:41:29.645Z,6.20
2022-11-29T07:44:13.041Z,6.20
2022-11-29T07:46:39.519Z,6.14
2022-11-29T07:49:06.252Z,6.21
2022-11-29T07:51:32.894Z,6.22
2022-11-29T07:54:00.088Z,6.22
2022-11-29T07:56:26.661Z,6.22
2022-11-29T07:58:53.267Z,6.19
2022-11-29T08:01:19.979Z,6.20
2022-11-29T08:03:46.731Z,6.19
2022-11-29T08:06:13.260Z,6.14
2022-11-29T08:08:43.895Z,6.12
2022-11-29T08:11:12.710Z,6.09
2022-11-29T08:13:39.462Z,6.09
2022-11-29T08:16:06.283Z,6.10
2022-11-29T08:18:32.873Z,6.09
2022-11-29T08:20:59.454Z,6.10
2022-11-29T08:23:26.063Z,6.10
2022-11-29T08:25:59.793Z,6.12
2022-11-29T08:28:26.371Z,6.12
2022-11-29T08:31:01.392Z,6.13
2022-11-29T08:33:28.453Z,6.16
2022-11-29T08:35:55.098Z,6.17
2022-11-29T08:38:21.875Z,6.17
2022-11-29T08:40:48.454Z,6.20
2022-11-29T08:43:14.993Z,6.19
2022-11-29T08:45:41.560Z,6.19
2022-11-29T08:48:08.111Z,6.17
2022-11-29T08:50:34.713Z,6.19
2022-11-29T08:53:21.201Z,6.22
2022-11-29T08:55:47.757Z,6.22
2022-11-29T08:58:16.113Z,6.23
2022-11-29T09:00:47.583Z,6.24
2022-11-29T09:03:34.113Z,6.26
2022-11-29T09:06:11.977Z,6.25
2022-11-29T09:08:39.553Z,6.23
2022-11-29T09:11:09.180Z,6.23
2022-11-29T09:13:35.793Z,6.21
2022-11-29T09:16:07.318Z,6.21
2022-11-29T09:18:33.901Z,6.17
2022-11-29T09:21:00.495Z,6.17
2022-11-29T09:23:27.084Z,6.20
2022-11-29T09:25:54.544Z,6.22
2022-11-29T09:28:21.133Z,6.24
2022-11-29T09:30:47.724Z,6.26
2022-11-29T09:33:14.351Z,6.29
2022-11-29T09:35:40.881Z,6.33
2022-11-29T09:38:07.454Z,6.35
2022-11-29T09:40:40.280Z,6.39
2022-11-29T09:45:59.615Z,6.42
2022-11-29T09:54:05.620Z,6.43
2022-11-29T09:56:51.864Z,6.42
2022-11-29T09:59:29.127Z,6.43
2022-11-29T10:02:05.987Z,6.42
2022-11-29T10:04:40.397Z,6.43
2022-11-29T10:07:17.957Z,6.45
2022-11-29T10:09:48.985Z,6.46
2022-11-29T10:12:45.679Z,6.40
2022-11-29T10:15:21.162Z,6.40
2022-11-29T10:17:54.642Z,6.39
2022-11-29T10:20:27.952Z,6.38
2022-11-29T10:23:06.871Z,6.34
2022-11-29T10:25:46.358Z,6.30
2022-11-29T10:28:17.770Z,6.28
2022-11-29T10:30:44.933Z,6.23
2022-11-29T10:33:33.285Z,6.18
2022-11-29T10:36:04.509Z,6.20
2022-11-29T10:38:32.090Z,6.26
2022-11-29T10:41:07.616Z,6.27
2022-11-29T10:43:34.415Z,6.30
2022-11-29T10:46:02.536Z,6.33
2022-11-29T10:48:33.435Z,6.40
2022-11-29T10:51:01.416Z,6.45
2022-11-29T10:53:35.768Z,6.51
2022-11-29T10:56:29.613Z,6.53
2022-11-29T10:59:05.159Z,6.59
2022-11-29T11:01:33.940Z,6.62
2022-11-29T11:04:04.327Z,6.66
2022-11-29T11:06:49.007Z,6.57
2022-11-29T11:11:58.490Z,6.65
2022-11-29T11:14:28.186Z,6.67
2022-11-29T11:16:55.060Z,6.66
2022-11-29T11:22:03.891Z,6.62
2022-11-29T11:24:36.045Z,6.62
2022-11-29T11:27:03.094Z,6.64
2022-11-29T11:29:45.472Z,6.64
2022-11-29T11:32:18.058Z,6.65
2022-11-29T11:34:55.079Z,6.64
2022-11-29T11:37:26.014Z,6.64
2022-11-29T11:39:56.094Z,6.64
2022-11-29T11:47:53.864Z,6.58
2022-11-29T11:50:44.162Z,6.58
2022-11-29T11:53:36.010Z,6.57
2022-11-29T11:56:14.154Z,6.63
2022-11-29T12:01:40.018Z,6.71
2022-11-29T12:04:15.090Z,6.76
2022-11-29T12:07:12.168Z,6.75
2022-11-29T12:09:45.006Z,6.76
2022-11-29T12:17:53.033Z,6.68
2022-11-29T12:26:06.371Z,6.61
2022-11-29T12:28:38.072Z,6.54
2022-11-29T12:37:13.208Z,6.41
2022-11-29T12:50:31.401Z,6.46
2022-11-29T12:53:27.104Z,6.43
2022-11-29T12:56:33.938Z,6.46
2022-11-29T12:59:28.870Z,6.52
2022-11-29T13:02:30.082Z,6.55
2022-11-29T13:22:21.259Z,6.37
2022-11-29T13:24:53.514Z,6.33
2022-11-29T13:27:27.330Z,6.28
2022-11-29T13:29:53.999Z,6.29
2022-11-29T13:32:48.071Z,6.30
2022-11-29T13:37:59.050Z,6.38
2022-11-29T13:43:19.193Z,6.83
2022-11-29T13:48:57.389Z,6.42
2022-11-29T13:54:03.610Z,6.16
2022-11-29T13:56:42.973Z,6.13
2022-11-29T13:59:17.630Z,6.10
2022-11-29T14:01:47.129Z,6.07
2022-11-29T14:07:15.511Z,5.86
2022-11-29T14:09:49.076Z,5.92
2022-11-29T14:17:56.341Z,6.46
2022-11-29T14:31:49.085Z,6.30
2022-11-29T14:34:21.003Z,6.36
2022-11-29T14:36:59.237Z,6.38
2022-11-29T14:39:34.088Z,6.41
2022-11-29T14:42:14.407Z,6.43
2022-11-29T14:45:01.079Z,6.43
2022-11-29T14:47:33.048Z,6.49
2022-11-29T14:50:04.153Z,6.52
2022-11-29T14:52:35.813Z,6.49
2022-11-29T14:55:09.476Z,6.46
2022-11-29T14:58:06.157Z,6.41
2022-11-29T15:03:13.276Z,6.48
2022-11-29T15:05:45.042Z,6.49
2022-11-29T15:08:20.429Z,6.46
2022-11-29T15:10:52.540Z,6.42
2022-11-29T15:13:27.083Z,6.43
2022-11-29T15:16:27.147Z,6.38
2022-11-29T15:24:26.744Z,6.42
2022-11-29T15:29:33.935Z,6.46
2022-11-29T15:32:05.414Z,6.45
2022-11-29T15:34:39.861Z,6.42
2022-11-29T15:37:06.684Z,6.43
2022-11-29T15:39:37.355Z,6.43
2022-11-29T15:42:11.865Z,6.45
2022-11-29T15:44:45.632Z,6.41
2022-11-29T15:49:54.099Z,6.40
2022-11-29T15:52:31.660Z,6.37
2022-11-29T15:55:03.422Z,6.37
2022-11-29T16:00:15.529Z,6.33
2022-11-29T16:02:50.865Z,6.29
2022-11-29T16:05:23.541Z,6.27
2022-11-29T16:07:53.758Z,6.27
2022-11-29T16:10:24.973Z,6.29
2022-11-29T16:15:32.989Z,6.25
2022-11-29T16:18:22.221Z,6.11
2022-11-29T16:21:06.087Z,5.94
2022-11-29T16:23:35.587Z,5.78
2022-11-29T16:28:45.880Z,5.65
2022-11-29T16:31:18.270Z,5.61
2022-11-29T16:33:47.522Z,5.61
2022-11-29T16:36:19.323Z,5.65
2022-11-29T16:38:49.146Z,5.68
2022-11-29T16:41:23.153Z,5.70
2022-11-29T16:43:55.432Z,5.70
2022-11-29T16:49:01.028Z,6.22
2022-11-29T16:51:43.825Z,5.90
2022-11-29T16:54:21.392Z,5.78
2022-11-29T16:56:49.644Z,5.68
2022-11-29T16:59:25.689Z,5.55
2022-11-29T17:01:55.583Z,5.49
2022-11-29T17:04:23.387Z,5.42
2022-11-29T17:06:51.658Z,5.34
2022-11-29T17:09:25.090Z,5.26
2022-11-29T17:11:51.995Z,5.16
2022-11-29T17:14:18.552Z,5.14
2022-11-29T17:16:47.616Z,5.11
2022-11-29T17:19:14.272Z,5.08
2022-11-29T17:21:40.957Z,5.14
2022-11-29T17:24:11.838Z,5.09
2022-11-29T17:26:38.473Z,5.02
2022-11-29T17:29:05.191Z,5.08
2022-11-29T17:31:31.895Z,5.07
2022-11-29T17:34:00.882Z,5.07
2022-11-29T17:36:27.910Z,5.06
2022-11-29T17:38:54.618Z,5.09
2022-11-29T17:41:24.550Z,5.07
2022-11-29T17:43:52.185Z,5.02
2022-11-29T17:48:55.621Z,4.97
2022-11-29T17:54:11.129Z,4.89
2022-11-29T17:56:38.133Z,4.81
2022-11-29T17:59:05.243Z,4.83
2022-11-29T18:01:34.079Z,4.87
2022-11-29T18:04:02.300Z,4.91
2022-11-29T18:06:36.120Z,4.95
2022-11-29T18:09:07.658Z,4.97
2022-11-29T18:11:46.336Z,4.95
2022-11-29T18:14:16.119Z,4.92
2022-11-29T18:16:44.981Z,4.96
2022-11-29T18:19:14.762Z,5.00
2022-11-29T18:21:41.396Z,4.99
2022-11-29T18:24:08.402Z,4.97
2022-11-29T18:26:36.350Z,4.99
2022-11-29T18:29:03.720Z,4.99
2022-11-29T18:31:32.781Z,4.99
2022-11-29T18:34:01.200Z,4.99
2022-11-29T18:36:30.787Z,4.93
2022-11-29T18:39:00.588Z,4.94
2022-11-29T18:41:29.518Z,4.97
2022-11-29T18:43:58.937Z,4.99
2022-11-29T18:46:26.379Z,4.96
2022-11-29T18:48:53.005Z,4.96
2022-11-29T18:51:20.541Z,4.88
2022-11-29T18:53:47.150Z,4.81
2022-11-29T18:56:16.095Z,4.67
2022-11-29T18:58:44.172Z,4.75
2022-11-29T19:01:19.486Z,4.75
2022-11-29T19:03:50.552Z,4.80
2022-11-29T19:06:20.441Z,4.82
2022-11-29T19:08:47.892Z,4.85
2022-11-29T19:11:16.905Z,4.89
2022-11-29T19:13:44.153Z,4.92
2022-11-29T19:16:14.549Z,4.97
2022-11-29T19:18:41.070Z,4.92
2022-11-29T19:21:11.760Z,4.93
2022-11-29T19:23:38.704Z,4.92
2022-11-29T19:26:09.370Z,4.93
2022-11-29T19:28:39.908Z,4.84
2022-11-29T19:31:07.431Z,4.88
2022-11-29T19:33:35.239Z,4.87
2022-11-29T19:36:20.414Z,4.91
2022-11-29T19:38:51.746Z,4.94
2022-11-29T19:41:24.294Z,4.97
2022-11-29T19:43:51.511Z,4.98
2022-11-29T19:46:20.746Z,4.98
2022-11-29T19:48:47.857Z,4.95
2022-11-29T19:51:17.537Z,4.94
2022-11-29T19:53:45.491Z,4.95
2022-11-29T19:56:15.005Z,4.96
2022-11-29T19:58:42.916Z,4.91
2022-11-29T20:03:46.502Z,4.82
2022-11-29T20:06:13.717Z,4.82
2022-11-29T20:08:41.080Z,4.85
2022-11-29T20:11:13.551Z,4.88
2022-11-29T20:13:42.628Z,4.87
2022-11-29T20:16:12.217Z,4.84
2022-11-29T20:18:43.562Z,4.84
2022-11-29T20:21:16.052Z,4.82
2022-11-29T20:23:43.386Z,4.75
2022-11-29T20:26:14.367Z,4.79
2022-11-29T20:28:41.546Z,4.80
2022-11-29T20:31:10.239Z,4.81
2022-11-29T20:33:38.758Z,4.82
2022-11-29T20:38:50.512Z,4.79
2022-11-29T20:41:27.812Z,4.79
2022-11-29T20:43:58.209Z,4.78
2022-11-29T20:46:25.908Z,4.69
2022-11-29T20:48:53.581Z,4.75
2022-11-29T20:51:26.054Z,4.76
2022-11-29T20:53:52.602Z,4.79
2022-11-29T20:56:19.241Z,4.78
2022-11-29T20:58:45.782Z,4.73
2022-11-29T21:01:12.501Z,4.74
2022-11-29T21:03:39.222Z,4.78
2022-11-29T21:06:06.490Z,4.83
2022-11-29T21:08:33.952Z,4.84
2022-11-29T21:11:04.630Z,4.75
2022-11-29T21:13:32.021Z,4.74
2022-11-29T21:15:59.530Z,4.82
2022-11-29T21:18:28.300Z,4.84
2022-11-29T21:21:35.050Z,4.84
2022-11-29T21:24:30.888Z,4.86
2022-11-29T21:26:58.450Z,4.90
2022-11-29T21:29:25.439Z,4.94
2022-11-29T21:31:54.036Z,4.99
2022-11-29T21:34:21.530Z,5.01
2022-11-29T21:36:55.582Z,5.05
2022-11-29T21:39:24.338Z,5.04
2022-11-29T21:41:50.870Z,5.06
2022-11-29T21:44:17.464Z,5.05
2022-11-29T21:46:44.087Z,5.03
2022-11-29T21:49:10.699Z,5.03
2022-11-29T21:51:37.284Z,5.00
2022-11-29T21:54:03.967Z,4.94
2022-11-29T21:56:30.564Z,4.93
2022-11-29T21:58:57.243Z,4.93
2022-11-29T22:01:23.963Z,4.88
2022-11-29T22:03:53.338Z,4.90
2022-11-29T22:06:21.262Z,4.84
2022-11-29T22:08:48.673Z,4.88
2022-11-29T22:11:17.286Z,4.93
2022-11-29T22:14:04.416Z,4.94
2022-11-29T22:16:31.152Z,4.97
2022-11-29T22:18:57.788Z,4.97
2022-11-29T22:21:24.535Z,4.95
2022-11-29T22:23:52.592Z,4.94
2022-11-29T22:26:19.153Z,4.94
2022-11-29T22:28:45.713Z,4.92
2022-11-29T22:31:12.909Z,4.89
2022-11-29T22:33:40.047Z,4.90
2022-11-29T22:36:09.913Z,4.92
2022-11-29T22:38:37.628Z,4.92
2022-11-29T22:41:13.574Z,4.89
2022-11-29T22:43:41.252Z,4.89
2022-11-29T22:48:47.077Z,4.83
2022-11-29T22:51:17.016Z,4.85
2022-11-29T22:53:49.127Z,4.89
2022-11-29T22:56:15.930Z,4.92
2022-11-29T22:58:42.597Z,4.92
2022-11-29T23:01:14.253Z,4.95
2022-11-29T23:03:43.421Z,4.96
2022-11-29T23:06:13.409Z,4.98
2022-11-29T23:08:41.458Z,4.99
2022-11-29T23:11:11.554Z,5.03
2022-11-29T23:13:40.793Z,5.06
2022-11-29T23:16:10.404Z,5.06
2022-11-29T23:18:38.462Z,5.06
2022-11-29T23:23:42.754Z,5.03
2022-11-29T23:26:17.073Z,5.01
2022-11-29T23:28:43.622Z,4.98
2022-11-29T23:31:10.179Z,4.92
2022-11-29T23:33:36.776Z,4.91
2022-11-29T23:36:05.813Z,4.83
2022-11-29T23:38:33.232Z,4.82
2022-11-29T23:40:59.957Z,4.78
2022-11-29T23:43:29.691Z,4.79
2022-11-29T23:45:56.644Z,4.78
2022-11-29T23:48:23.310Z,4.81
2022-11-29T23:50:49.974Z,4.87
2022-11-29T23:53:18.598Z,4.92
2022-11-29T23:55:47.927Z,4.92
2022-11-29T23:58:14.472Z,4.87
